Home PIREPS Pireps

Flight BEL3169

  • Submitted By: Vincent Fourni
  • Departure Airport: Bruxelles National (EBBR)
  • Arrival Airport: Napoli / Capodichino (LIRN)
  • Aircraft: A319-112 (OO-SSG)
  • Flight Time: 02.29
  • Date Submitted: 17/11/2017
  • Status: Accepted
Flight Details
Gross Revenue:
(112 load / € 182.00 per unit
€ 20,384.00
Fuel Cost:
(145379 fuel used @ 5.1 / unit)
€ 741,432.90

Additional Log Information:

View Log

Aircraft Used in flight is PMDG 777-200LR PMDG Brussels
09:18 Brakes are On
09:24 Brakes are Released
09:26 Brakes are On
09:27 Brakes are Released
09:32 You Took off @ 178 Knots and Flaps at Position 2
Departure Weather
EBBR 170820Z 00000KT 9999 FEW031 05/04 Q1028 NOSIGrn
09:32 Landing Gear Up @ 204 Knots and 540 Feet
09:35 Below 10000 feet you are not allowed to go over 250 knots
09:37 Above FL100 you need to switch of the landing lights
11:42 You exceeded maximum bank angle
11:43 Landing Gear Down @ 207 Knots and 3500 Feet
11:48 You Landed @ 152 Knots and with -1350 Vertical Speed
Arrival Weather
LIRN 171020Z 02009KT 350V050 9999 FEW040 17/09 Q1013 NOSIGrn
11:48 Your Landing was very hard
11:48 Paused
11:49 Unpaused
11:49 Paused
11:52 Unpaused
11:52 Paused
11:57 Brussels Bel-Track1.0.1.2

Route Map

Corporate About Us Our Team Vacancies Information Fleet Route Network Rules and Regulations Operations Flight Schedules Event Center Tours Partners IVAO Vatsim Acars dev FSCB

fb Users Online South Africa Marc Toussaint,
1 Pilot(s) and 163 Guest(s) Online
CMS by phpVMS - Design by Crazycreatives.com - Copyright © 2020 - Brussels Airlines Virtual